createdAt,value
2023-05-06T00:00:41.725Z,86.3267
2023-05-06T00:01:44.475Z,86.9537
2023-05-06T00:02:47.610Z,87.7985
2023-05-06T00:03:50.250Z,88.2339
2023-05-06T00:04:53.088Z,88.2365
2023-05-06T00:05:55.611Z,87.7917
2023-05-06T00:06:58.174Z,87.1090
2023-05-06T00:08:00.756Z,85.7519
2023-05-06T00:09:03.369Z,82.6519
2023-05-06T00:10:05.926Z,85.7323
2023-05-06T00:12:11.971Z,87.3769
2023-05-06T00:13:14.606Z,88.4475
2023-05-06T00:14:17.207Z,88.5842
2023-05-06T00:15:19.798Z,88.4324
2023-05-06T00:16:22.365Z,88.5564
2023-05-06T00:17:24.933Z,87.6682
2023-05-06T00:18:27.474Z,87.8446
2023-05-06T00:19:30.080Z,88.1425
2023-05-06T00:20:36.468Z,88.0360
2023-05-06T00:21:39.035Z,87.7582
2023-05-06T00:22:41.909Z,87.8671
2023-05-06T00:23:44.464Z,87.8864
2023-05-06T00:24:47.020Z,87.7241
2023-05-06T00:25:49.555Z,87.5379
2023-05-06T00:26:52.102Z,87.4582
2023-05-06T00:27:54.472Z,87.6308
2023-05-06T00:28:57.021Z,87.4408
2023-05-06T00:29:59.575Z,86.9406
2023-05-06T00:31:02.121Z,86.2644
2023-05-06T00:32:04.969Z,85.8690
2023-05-06T00:33:07.572Z,85.6915
2023-05-06T00:34:10.149Z,85.9475
2023-05-06T00:35:36.123Z,87.0651
2023-05-06T00:36:31.358Z,87.4383
2023-05-06T00:37:34.047Z,87.4424
2023-05-06T00:39:40.245Z,87.6427
2023-05-06T00:40:42.805Z,87.7814
2023-05-06T00:41:45.343Z,88.0072
2023-05-06T00:42:47.906Z,88.0406
2023-05-06T00:43:50.502Z,88.1512
2023-05-06T00:44:53.251Z,87.8765
2023-05-06T00:45:55.835Z,87.4469
2023-05-06T00:46:58.356Z,87.1093
2023-05-06T00:48:00.909Z,87.1739
2023-05-06T00:49:03.200Z,87.1333
2023-05-06T00:50:05.794Z,87.0390
2023-05-06T00:51:08.378Z,87.1893
2023-05-06T00:52:10.952Z,87.2273
2023-05-06T00:53:18.787Z,87.1519
2023-05-06T00:54:21.296Z,87.3906
2023-05-06T00:55:23.839Z,87.2642
2023-05-06T00:56:26.404Z,87.1972
2023-05-06T00:57:28.945Z,87.3149
2023-05-06T00:58:31.512Z,87.4718
2023-05-06T01:00:35.967Z,87.2325
2023-05-06T01:01:38.600Z,86.4517
2023-05-06T01:02:47.485Z,86.3805
2023-05-06T01:03:42.286Z,86.4168
2023-05-06T01:04:44.948Z,86.3402
2023-05-06T01:05:47.504Z,86.5791
2023-05-06T01:06:50.072Z,86.9069
2023-05-06T01:07:52.636Z,87.0739
2023-05-06T01:08:55.234Z,87.4907
2023-05-06T01:09:58.328Z,87.9548
2023-05-06T01:11:00.578Z,88.1542
2023-05-06T01:12:03.162Z,88.4283
2023-05-06T01:13:05.785Z,88.7257
2023-05-06T01:15:11.999Z,88.8307
2023-05-06T01:16:14.640Z,88.8111
2023-05-06T01:17:17.377Z,88.7339
2023-05-06T01:18:19.942Z,88.5724
2023-05-06T01:19:22.503Z,88.5012
2023-05-06T01:20:25.042Z,88.1485
2023-05-06T01:21:27.607Z,88.1034
2023-05-06T01:22:29.902Z,88.0118
2023-05-06T01:23:32.479Z,87.9163
2023-05-06T01:24:35.067Z,87.8731
2023-05-06T01:25:37.638Z,87.7871
2023-05-06T01:26:40.215Z,87.6562
2023-05-06T01:27:42.492Z,87.5771
2023-05-06T01:28:45.073Z,87.5952
2023-05-06T01:29:47.688Z,87.7986
2023-05-06T01:30:50.277Z,87.8657
2023-05-06T01:31:52.828Z,88.0172
2023-05-06T01:32:55.161Z,87.9751
2023-05-06T01:33:57.703Z,87.7308
2023-05-06T01:35:00.234Z,88.2639
2023-05-06T01:36:02.788Z,88.3952
2023-05-06T01:37:05.336Z,88.6214
2023-05-06T01:38:07.937Z,88.4701
2023-05-06T01:39:10.466Z,88.5718
2023-05-06T01:40:13.049Z,88.3829
2023-05-06T01:41:15.627Z,88.1668
2023-05-06T01:42:18.189Z,88.2049
2023-05-06T01:43:20.706Z,88.3304
2023-05-06T01:44:23.277Z,88.3988
2023-05-06T01:45:26.458Z,88.2761
2023-05-06T01:46:29.019Z,88.2954
2023-05-06T01:47:31.594Z,88.5087
2023-05-06T01:48:34.367Z,88.5934
2023-05-06T01:49:36.920Z,88.5550
2023-05-06T01:50:39.706Z,88.7421
2023-05-06T01:51:42.278Z,88.8745
2023-05-06T01:52:44.823Z,88.9158
2023-05-06T01:53:47.594Z,89.0466
2023-05-06T01:54:50.174Z,89.1519
2023-05-06T01:56:54.567Z,89.3759
2023-05-06T01:57:57.075Z,89.3096
2023-05-06T01:59:00.058Z,89.3393
2023-05-06T02:00:02.714Z,89.2048
2023-05-06T02:01:05.474Z,89.2316
2023-05-06T02:02:08.104Z,89.3382
2023-05-06T02:03:10.709Z,89.3818
2023-05-06T02:04:17.126Z,89.2130
2023-05-06T02:06:27.177Z,89.2043
2023-05-06T02:07:29.709Z,89.1711
2023-05-06T02:08:32.321Z,89.1268
2023-05-06T02:09:34.879Z,89.1116
2023-05-06T02:10:37.224Z,85.8722
2023-05-06T02:11:39.817Z,83.7777
2023-05-06T02:12:42.418Z,84.6730
2023-05-06T02:13:44.921Z,86.0570
2023-05-06T02:14:47.738Z,86.7885
2023-05-06T02:15:50.338Z,87.4845
2023-05-06T02:16:52.893Z,87.8798
2023-05-06T02:17:55.491Z,88.3310
2023-05-06T02:18:57.799Z,88.7069
2023-05-06T02:20:01.163Z,88.8267
2023-05-06T02:21:03.724Z,88.8809
2023-05-06T02:22:06.289Z,88.8673
2023-05-06T02:23:08.849Z,88.9776
2023-05-06T02:24:12.129Z,89.2071
2023-05-06T02:25:14.706Z,89.3375
2023-05-06T02:26:17.296Z,89.0405
2023-05-06T02:27:19.878Z,89.2735
2023-05-06T02:28:22.558Z,89.3390
2023-05-06T02:29:25.275Z,89.3408
2023-05-06T02:30:27.817Z,89.0146
2023-05-06T02:31:30.720Z,88.5898
2023-05-06T02:32:33.270Z,88.9119
2023-05-06T02:33:35.839Z,89.4331
2023-05-06T02:34:38.389Z,89.5762
2023-05-06T02:35:40.988Z,89.6276
2023-05-06T02:36:43.597Z,89.5907
2023-05-06T02:38:47.900Z,89.8171
2023-05-06T02:39:50.473Z,89.8861
2023-05-06T02:40:53.033Z,89.9493
2023-05-06T02:41:55.380Z,90.0799
2023-05-06T02:42:57.787Z,90.0379
2023-05-06T02:43:58.435Z,90.0388
2023-05-06T02:45:00.991Z,89.7963
2023-05-06T02:46:03.587Z,89.7283
2023-05-06T02:47:06.126Z,89.5037
2023-05-06T02:48:08.695Z,89.7502
2023-05-06T02:49:11.246Z,89.6418
2023-05-06T02:50:13.849Z,90.1630
2023-05-06T02:51:16.437Z,90.2716
2023-05-06T02:52:19.051Z,90.3124
2023-05-06T02:53:21.578Z,90.4246
2023-05-06T02:54:27.581Z,90.6361
2023-05-06T02:55:30.141Z,90.7701
2023-05-06T02:56:32.711Z,90.8253
2023-05-06T02:57:35.308Z,90.8012
2023-05-06T02:58:38.113Z,90.8351
2023-05-06T02:59:40.736Z,90.9819
2023-05-06T03:00:43.309Z,91.0375
2023-05-06T03:01:45.627Z,91.1014
2023-05-06T03:02:48.305Z,91.1253
2023-05-06T03:03:50.961Z,91.1865
2023-05-06T03:04:53.542Z,91.1436
2023-05-06T03:06:59.697Z,91.1677
2023-05-06T03:08:02.303Z,91.1638
2023-05-06T03:09:05.371Z,91.1403
2023-05-06T03:10:08.014Z,91.2226
2023-05-06T03:11:10.649Z,91.3607
2023-05-06T03:12:10.812Z,91.4098
2023-05-06T03:13:13.471Z,91.3436
2023-05-06T03:14:16.071Z,91.3056
2023-05-06T03:15:18.462Z,91.1677
2023-05-06T03:16:28.120Z,91.2320
2023-05-06T03:17:30.497Z,91.2333
2023-05-06T03:18:33.063Z,90.9543
2023-05-06T03:19:35.672Z,90.6354
2023-05-06T03:20:38.264Z,90.8101
2023-05-06T03:21:40.893Z,90.8795
2023-05-06T03:22:43.430Z,90.8800
2023-05-06T03:23:46.047Z,90.8378
2023-05-06T03:24:48.666Z,91.1085
2023-05-06T03:25:51.265Z,91.3440
2023-05-06T03:26:54.395Z,91.2524
2023-05-06T03:27:57.046Z,91.2520
2023-05-06T03:28:59.900Z,91.1870
2023-05-06T03:30:02.473Z,91.3100
2023-05-06T03:32:08.732Z,91.2715
2023-05-06T03:33:11.312Z,91.2119
2023-05-06T03:34:13.883Z,91.2623
2023-05-06T03:35:16.467Z,91.4985
2023-05-06T03:36:19.292Z,91.6200
2023-05-06T03:37:21.908Z,91.7756
2023-05-06T03:38:24.469Z,91.9680
2023-05-06T03:39:27.062Z,92.0387
2023-05-06T03:40:29.626Z,92.2078
2023-05-06T03:41:32.223Z,92.3579
2023-05-06T03:42:35.047Z,92.4373
2023-05-06T03:43:37.674Z,92.4982
2023-05-06T03:44:40.504Z,92.5787
2023-05-06T03:45:43.166Z,92.6874
2023-05-06T03:46:45.496Z,92.6700
2023-05-06T03:47:48.381Z,92.5857
2023-05-06T03:48:51.273Z,92.3857
2023-05-06T03:49:53.852Z,92.2725
2023-05-06T03:50:56.760Z,92.1642
2023-05-06T03:51:59.332Z,91.9762
2023-05-06T03:53:01.924Z,92.0226
2023-05-06T03:54:04.846Z,91.9746
2023-05-06T03:55:07.566Z,91.5495
2023-05-06T03:56:10.573Z,91.6131
2023-05-06T03:57:13.158Z,91.7608
2023-05-06T03:58:15.775Z,91.8859
2023-05-06T03:59:18.708Z,91.9142
2023-05-06T04:00:21.039Z,91.9739
2023-05-06T04:01:23.667Z,92.0819
2023-05-06T04:03:29.946Z,92.2056
2023-05-06T04:04:30.670Z,92.5385
2023-05-06T04:05:33.294Z,92.5550
2023-05-06T04:06:35.891Z,92.6664
2023-05-06T04:07:38.209Z,92.7762
2023-05-06T04:08:40.868Z,92.8360
2023-05-06T04:09:43.442Z,92.8312
2023-05-06T04:10:46.037Z,92.7692
2023-05-06T04:11:48.619Z,92.6172
2023-05-06T04:12:51.225Z,92.6118
2023-05-06T04:13:53.849Z,92.5877
2023-05-06T04:14:56.437Z,92.3310
2023-05-06T04:15:59.057Z,92.1042
2023-05-06T04:17:01.636Z,92.1838
2023-05-06T04:18:03.980Z,92.3068
2023-05-06T04:19:06.783Z,92.5162
2023-05-06T04:20:09.312Z,92.5619
2023-05-06T04:21:35.473Z,92.6052
2023-05-06T04:22:30.741Z,92.4514
2023-05-06T04:23:33.336Z,92.4511
2023-05-06T04:24:39.581Z,92.4263
2023-05-06T04:25:42.007Z,91.5791
2023-05-06T04:26:44.587Z,89.2761
2023-05-06T04:27:46.905Z,87.4144
2023-05-06T04:28:49.491Z,89.0507
2023-05-06T04:29:52.090Z,89.8624
2023-05-06T04:30:54.678Z,89.8913
2023-05-06T04:31:57.273Z,88.6267
2023-05-06T04:33:00.222Z,89.2696
2023-05-06T04:34:02.787Z,89.9291
2023-05-06T04:35:05.393Z,90.6871
2023-05-06T04:36:08.219Z,91.0708
2023-05-06T04:37:10.862Z,91.5575
2023-05-06T04:38:13.477Z,91.5311
2023-05-06T04:39:16.096Z,91.6495
2023-05-06T04:40:18.666Z,91.9474
2023-05-06T04:41:21.482Z,91.8598
2023-05-06T04:42:24.107Z,91.7233
2023-05-06T04:43:26.716Z,91.8405
2023-05-06T04:44:29.325Z,91.9276
2023-05-06T04:45:31.939Z,91.7446
2023-05-06T04:47:34.845Z,91.8787
2023-05-06T04:48:45.170Z,90.9270
2023-05-06T04:49:47.792Z,89.2160
2023-05-06T04:50:50.622Z,89.3442
2023-05-06T04:51:53.185Z,89.3216
2023-05-06T04:52:55.804Z,89.2956
2023-05-06T04:53:58.386Z,89.3398
2023-05-06T04:55:01.013Z,89.7895
2023-05-06T04:56:03.638Z,89.8440
2023-05-06T04:57:06.469Z,89.8841
2023-05-06T04:58:09.091Z,90.1148
2023-05-06T04:59:11.712Z,90.2576
2023-05-06T05:00:14.296Z,90.3391
2023-05-06T05:01:16.942Z,90.0539
2023-05-06T05:02:19.294Z,90.1047
2023-05-06T05:03:21.958Z,89.9159
2023-05-06T05:04:24.700Z,90.1902
2023-05-06T05:05:27.311Z,90.3826
2023-05-06T05:06:29.947Z,90.5644
2023-05-06T05:07:32.570Z,90.6817
2023-05-06T05:08:35.185Z,90.6672
2023-05-06T05:09:37.834Z,90.6624
2023-05-06T05:10:40.462Z,90.6308
2023-05-06T05:11:42.951Z,90.4592
2023-05-06T05:12:45.585Z,89.9979
2023-05-06T05:13:48.120Z,89.4137
2023-05-06T05:14:50.738Z,89.0604
2023-05-06T05:15:53.327Z,88.9404
2023-05-06T05:16:56.101Z,88.7592
2023-05-06T05:17:58.481Z,88.5417
2023-05-06T05:19:03.330Z,88.5408
2023-05-06T05:20:02.818Z,88.4249
2023-05-06T05:21:05.444Z,88.0841
2023-05-06T05:22:08.067Z,87.5677
2023-05-06T05:23:10.392Z,87.0024
2023-05-06T05:24:13.472Z,86.5670
2023-05-06T05:25:16.067Z,86.3427
2023-05-06T05:26:18.685Z,85.7902
2023-05-06T05:27:21.289Z,85.2838
2023-05-06T05:28:23.922Z,85.8867
2023-05-06T05:29:26.593Z,85.6585
2023-05-06T05:30:29.234Z,85.1553
2023-05-06T05:31:31.869Z,84.7443
2023-05-06T05:32:34.473Z,84.3084
2023-05-06T05:33:37.156Z,84.0013
2023-05-06T05:34:39.797Z,84.2456
2023-05-06T05:35:42.364Z,84.4466
2023-05-06T05:36:44.976Z,84.9112
2023-05-06T05:37:47.588Z,84.1993
2023-05-06T05:38:50.212Z,84.1242
2023-05-06T05:39:52.628Z,85.3673
2023-05-06T05:40:55.231Z,85.9415
2023-05-06T05:41:57.885Z,86.1767
2023-05-06T05:43:00.484Z,85.2442
2023-05-06T05:44:03.101Z,85.6234
2023-05-06T05:45:12.772Z,86.3091
2023-05-06T05:46:08.097Z,85.9084
2023-05-06T05:47:10.663Z,86.5002
2023-05-06T05:48:13.269Z,86.5172
2023-05-06T05:49:15.916Z,85.2269
2023-05-06T05:50:18.575Z,85.5866
2023-05-06T05:51:48.937Z,85.6020
2023-05-06T05:52:44.247Z,84.8682
2023-05-06T05:53:46.948Z,84.2581
2023-05-06T05:54:49.554Z,84.8384
2023-05-06T05:55:52.225Z,84.9348
2023-05-06T05:56:54.595Z,85.0738
2023-05-06T05:57:57.166Z,85.1722
2023-05-06T05:58:59.882Z,84.9023
2023-05-06T06:00:02.535Z,84.6906
2023-05-06T06:01:06.456Z,84.4940
2023-05-06T06:02:09.119Z,84.6200
2023-05-06T06:03:11.826Z,84.3761
2023-05-06T06:04:14.491Z,83.8319
2023-05-06T06:05:17.160Z,84.5370
2023-05-06T06:06:19.862Z,85.0606
2023-05-06T06:07:22.486Z,85.0567
2023-05-06T06:08:25.123Z,82.5396
2023-05-06T06:09:28.100Z,80.3901
2023-05-06T06:10:30.741Z,81.2207
2023-05-06T06:11:33.360Z,80.8116
2023-05-06T06:12:36.024Z,79.4220
2023-05-06T06:13:38.803Z,78.9946
2023-05-06T06:14:41.437Z,79.3466
2023-05-06T06:16:44.844Z,78.6714
2023-05-06T06:17:55.061Z,80.4582
2023-05-06T06:18:57.734Z,80.6853
2023-05-06T06:20:00.357Z,81.5115
2023-05-06T06:21:03.023Z,81.9091
2023-05-06T06:23:09.274Z,82.6983
2023-05-06T06:24:11.897Z,82.7929
2023-05-06T06:25:14.497Z,83.3923
2023-05-06T06:26:17.070Z,82.7848
2023-05-06T06:27:19.721Z,82.6831
2023-05-06T06:28:22.378Z,82.5675
2023-05-06T06:29:25.036Z,81.6133
2023-05-06T06:30:27.619Z,81.4308
2023-05-06T06:31:30.222Z,81.1964
2023-05-06T06:32:32.856Z,80.7375
2023-05-06T06:33:35.449Z,82.0198
2023-05-06T06:34:38.079Z,82.9631
2023-05-06T06:35:40.728Z,83.5155
2023-05-06T06:36:43.354Z,84.3543
2023-05-06T06:37:45.947Z,84.9928
2023-05-06T06:38:48.791Z,84.9535
2023-05-06T06:39:51.479Z,83.7344
2023-05-06T06:40:54.141Z,83.0912
2023-05-06T06:41:56.804Z,83.0278
2023-05-06T06:42:59.387Z,82.3300
2023-05-06T06:44:02.015Z,81.9563
2023-05-06T06:45:04.890Z,82.4789
2023-05-06T06:46:07.536Z,82.2729
2023-05-06T06:47:10.156Z,81.8126
2023-05-06T06:48:12.766Z,81.1742
2023-05-06T06:49:15.393Z,80.8398
2023-05-06T06:50:18.042Z,81.9737
2023-05-06T06:51:20.673Z,82.2040
2023-05-06T06:53:25.128Z,81.6409
2023-05-06T06:54:27.750Z,81.8498
2023-05-06T06:55:30.342Z,81.2907
2023-05-06T06:56:32.977Z,82.6341
2023-05-06T06:57:35.568Z,83.5447
2023-05-06T06:58:38.378Z,83.3341
2023-05-06T06:59:41.023Z,82.3773
2023-05-06T07:00:43.626Z,81.9058
2023-05-06T07:01:46.279Z,82.0005
2023-05-06T07:02:48.935Z,82.2365
2023-05-06T07:03:51.533Z,82.6279
2023-05-06T07:04:54.211Z,82.8309
2023-05-06T07:06:57.096Z,82.5842
2023-05-06T07:07:59.685Z,80.6604
2023-05-06T07:09:02.307Z,79.3390
2023-05-06T07:10:04.921Z,78.0999
2023-05-06T07:11:07.522Z,77.0276
2023-05-06T07:12:10.660Z,77.0289
2023-05-06T07:13:13.287Z,78.2901
2023-05-06T07:14:23.467Z,80.3167
2023-05-06T07:15:18.745Z,81.4140
2023-05-06T07:16:21.405Z,81.4681
2023-05-06T07:17:24.105Z,81.1406
2023-05-06T07:18:27.615Z,80.9747
2023-05-06T07:19:30.238Z,79.9936
2023-05-06T07:20:32.887Z,78.2233
2023-05-06T07:21:35.556Z,77.3031
2023-05-06T07:22:38.201Z,77.6848
2023-05-06T07:23:40.807Z,77.9501
2023-05-06T07:24:43.456Z,77.9671
2023-05-06T07:25:46.061Z,76.7743
2023-05-06T07:26:48.703Z,75.0797
2023-05-06T07:27:51.448Z,74.2722
2023-05-06T07:28:54.081Z,72.3532
2023-05-06T07:29:56.690Z,71.3983
2023-05-06T07:30:59.596Z,69.4172
2023-05-06T07:32:02.185Z,66.7878
2023-05-06T07:33:04.809Z,67.0278
2023-05-06T07:34:07.415Z,69.6092
2023-05-06T07:35:10.279Z,67.9884
2023-05-06T07:36:13.113Z,68.5133
2023-05-06T07:37:15.758Z,71.5841
2023-05-06T07:38:18.323Z,74.3766
2023-05-06T07:39:20.964Z,74.2727
2023-05-06T07:40:23.667Z,74.0711
2023-05-06T07:41:26.259Z,74.0292
2023-05-06T07:42:28.855Z,75.1194
2023-05-06T07:43:31.460Z,74.8417
2023-05-06T07:44:34.286Z,71.9318
2023-05-06T07:45:36.869Z,71.2468
2023-05-06T07:46:39.505Z,70.0973
2023-05-06T07:47:42.196Z,69.5011
2023-05-06T07:48:44.796Z,69.2561
2023-05-06T07:49:47.659Z,69.4410
2023-05-06T07:50:50.286Z,70.2860
2023-05-06T07:51:53.186Z,69.4179
2023-05-06T07:52:55.859Z,67.2273
2023-05-06T07:53:58.554Z,65.8396
2023-05-06T07:55:01.134Z,66.2357
2023-05-06T07:56:03.755Z,65.1852
2023-05-06T07:57:06.626Z,64.4706
2023-05-06T07:58:09.202Z,64.2539
2023-05-06T07:59:12.099Z,63.2670
2023-05-06T08:00:14.749Z,64.5883
2023-05-06T08:01:17.400Z,63.8931
2023-05-06T08:02:17.903Z,62.0336
2023-05-06T08:03:20.643Z,62.2629
2023-05-06T08:04:23.387Z,62.2556
2023-05-06T08:05:26.032Z,64.2373
2023-05-06T08:06:28.618Z,66.7098
2023-05-06T08:07:31.240Z,63.6875
2023-05-06T08:08:33.860Z,61.3597
2023-05-06T08:09:36.494Z,60.4890
2023-05-06T08:10:39.111Z,59.1890
2023-05-06T08:11:41.738Z,61.4687
2023-05-06T08:12:44.397Z,60.1451
2023-05-06T08:13:46.975Z,61.1578
2023-05-06T08:14:50.125Z,59.9672
2023-05-06T08:15:52.753Z,57.5199
2023-05-06T08:16:55.387Z,57.7418
2023-05-06T08:18:02.185Z,58.2327
2023-05-06T08:18:59.225Z,56.7624
2023-05-06T08:20:01.935Z,54.9904
2023-05-06T08:21:04.573Z,54.3892
2023-05-06T08:22:07.178Z,56.1961
2023-05-06T08:23:09.795Z,56.9619
2023-05-06T08:24:12.524Z,57.3294
2023-05-06T08:25:15.033Z,58.5106
2023-05-06T08:26:17.655Z,61.0047
2023-05-06T08:27:20.228Z,61.3263
2023-05-06T08:28:24.675Z,62.1616
2023-05-06T08:29:24.283Z,58.9075
2023-05-06T08:30:26.942Z,56.7197
2023-05-06T08:31:29.543Z,55.0134
2023-05-06T08:32:32.713Z,55.4721
2023-05-06T08:33:35.330Z,54.8434
2023-05-06T08:34:37.914Z,60.1963
2023-05-06T08:35:41.037Z,62.6586
2023-05-06T08:36:43.619Z,58.2140
2023-05-06T08:37:46.238Z,55.2952
2023-05-06T08:38:48.888Z,57.5601
2023-05-06T08:39:51.508Z,57.5886
2023-05-06T08:40:54.076Z,61.6996
2023-05-06T08:41:56.678Z,64.5193
2023-05-06T08:42:59.277Z,64.8253
2023-05-06T08:44:01.910Z,65.3301
2023-05-06T08:45:04.543Z,67.2913
2023-05-06T08:46:07.217Z,64.5905
2023-05-06T08:47:10.024Z,61.9432
2023-05-06T08:48:12.827Z,63.0788
2023-05-06T08:49:15.451Z,64.2104
2023-05-06T08:50:18.059Z,64.1492
2023-05-06T08:51:20.679Z,64.2240
2023-05-06T08:52:23.338Z,63.6877
2023-05-06T08:53:25.920Z,62.9272
2023-05-06T08:54:28.642Z,64.4463
2023-05-06T08:55:31.266Z,66.1290
2023-05-06T08:56:33.892Z,63.5573
2023-05-06T08:57:36.508Z,62.5956
2023-05-06T08:58:39.087Z,61.6851
2023-05-06T08:59:41.977Z,58.7606
2023-05-06T09:00:44.601Z,55.7419
2023-05-06T09:01:47.071Z,55.2360
2023-05-06T09:03:50.234Z,55.6221
2023-05-06T09:04:53.578Z,54.6030
2023-05-06T09:05:56.169Z,55.6367
2023-05-06T09:06:58.649Z,55.6986
2023-05-06T09:08:01.310Z,55.4177
2023-05-06T09:09:03.937Z,54.4039
2023-05-06T09:10:06.538Z,54.3933
2023-05-06T09:11:09.157Z,52.7610
2023-05-06T09:12:11.784Z,52.8461
2023-05-06T09:13:14.392Z,53.9484
2023-05-06T09:14:17.075Z,53.1226
2023-05-06T09:15:19.873Z,54.4072
2023-05-06T09:16:22.721Z,52.5425
2023-05-06T09:17:25.462Z,50.3237
2023-05-06T09:18:28.068Z,51.0362
2023-05-06T09:19:30.734Z,57.1182
2023-05-06T09:20:33.348Z,57.3410
2023-05-06T09:21:35.955Z,55.2202
2023-05-06T09:22:38.616Z,55.6887
2023-05-06T09:23:41.276Z,57.9514
2023-05-06T09:24:43.906Z,56.3243
2023-05-06T09:25:46.525Z,54.6595
2023-05-06T09:26:49.132Z,55.5233
2023-05-06T09:27:51.756Z,58.1054
2023-05-06T09:28:54.330Z,56.4085
2023-05-06T09:29:54.832Z,54.7708
2023-05-06T09:30:57.459Z,56.8937
2023-05-06T09:32:00.061Z,57.6680
2023-05-06T09:33:02.706Z,60.1249
2023-05-06T09:34:05.320Z,60.7641
2023-05-06T09:35:07.975Z,60.1467
2023-05-06T09:36:10.706Z,61.0873
2023-05-06T09:37:13.332Z,60.5114
2023-05-06T09:38:15.912Z,60.7060
2023-05-06T09:39:18.578Z,57.9985
2023-05-06T09:40:21.250Z,55.7590
2023-05-06T09:41:23.608Z,54.8408
2023-05-06T09:42:26.231Z,56.9074
2023-05-06T09:43:28.893Z,58.8332
2023-05-06T09:44:31.461Z,59.7406
2023-05-06T09:45:34.071Z,57.9109
2023-05-06T09:46:36.722Z,57.7670
2023-05-06T09:47:39.410Z,59.3220
2023-05-06T09:48:42.032Z,57.4956
2023-05-06T09:49:44.650Z,57.2248
2023-05-06T09:50:47.320Z,56.5852
2023-05-06T09:51:49.919Z,56.4311
2023-05-06T09:52:52.562Z,57.7181
2023-05-06T09:53:55.211Z,57.2115
2023-05-06T09:54:57.876Z,56.3737
2023-05-06T09:56:00.530Z,57.2232
2023-05-06T09:57:03.285Z,58.7037
2023-05-06T09:58:05.957Z,60.1185
2023-05-06T09:59:08.620Z,58.2215
2023-05-06T10:00:11.289Z,55.2859
2023-05-06T10:01:19.250Z,53.1636
2023-05-06T10:02:15.284Z,52.6703
2023-05-06T10:03:18.155Z,53.1325
2023-05-06T10:04:21.379Z,52.9031
2023-05-06T10:05:21.701Z,51.9557
2023-05-06T10:06:24.289Z,51.4414
2023-05-06T10:07:27.175Z,52.0062
2023-05-06T10:08:29.812Z,51.0534
2023-05-06T10:09:32.715Z,51.9837
2023-05-06T10:10:35.421Z,51.5259
2023-05-06T10:11:38.081Z,51.2601
2023-05-06T10:12:38.787Z,52.2613
2023-05-06T10:13:41.428Z,54.2258
2023-05-06T10:14:44.203Z,54.9200
2023-05-06T10:15:46.927Z,57.5008
2023-05-06T10:16:49.583Z,57.5639
2023-05-06T10:17:52.252Z,58.4579
2023-05-06T10:18:54.860Z,56.6613
2023-05-06T10:19:57.648Z,55.9410
2023-05-06T10:21:00.252Z,56.3599
2023-05-06T10:22:05.537Z,53.2883
2023-05-06T10:23:04.606Z,51.2432
2023-05-06T10:24:07.295Z,50.0492
2023-05-06T10:25:10.165Z,49.3265
2023-05-06T10:26:12.946Z,48.9421
2023-05-06T10:27:15.574Z,50.0790
2023-05-06T10:28:24.666Z,54.2212
2023-05-06T10:29:19.483Z,53.8276
2023-05-06T10:30:22.334Z,53.6319
2023-05-06T10:31:25.041Z,52.3060
2023-05-06T10:32:27.663Z,51.0344
2023-05-06T10:33:30.347Z,51.1150
2023-05-06T10:34:33.048Z,51.9492
2023-05-06T10:35:35.752Z,51.4994
2023-05-06T10:36:38.393Z,52.3896
2023-05-06T10:37:41.052Z,50.1028
2023-05-06T10:38:43.715Z,49.7180
2023-05-06T10:39:46.495Z,49.7695
2023-05-06T10:40:49.154Z,49.9384
2023-05-06T10:42:52.654Z,49.0102
2023-05-06T10:43:55.263Z,47.7969
2023-05-06T10:44:57.896Z,46.6338
2023-05-06T10:46:00.803Z,48.2606
2023-05-06T10:47:03.458Z,49.3798
2023-05-06T10:48:06.103Z,49.4890
2023-05-06T10:49:08.758Z,49.5012
2023-05-06T10:50:11.381Z,50.9393
2023-05-06T10:51:14.028Z,50.4433
2023-05-06T10:52:16.668Z,48.6814
2023-05-06T10:53:19.300Z,50.9349
2023-05-06T10:54:21.955Z,50.1209
2023-05-06T10:55:24.654Z,47.2594
2023-05-06T10:56:27.341Z,49.1615
2023-05-06T10:57:29.988Z,50.1044
2023-05-06T10:58:32.617Z,49.2685
2023-05-06T10:59:35.328Z,49.1053
2023-05-06T11:00:37.968Z,48.7457
2023-05-06T11:01:40.733Z,50.1342
2023-05-06T11:02:44.966Z,51.6198
2023-05-06T11:03:45.851Z,52.0656
2023-05-06T11:04:46.392Z,51.7395
2023-05-06T11:05:49.054Z,53.0683
2023-05-06T11:06:51.729Z,49.9694
2023-05-06T11:07:54.353Z,48.6213
2023-05-06T11:08:57.093Z,49.3979
2023-05-06T11:09:59.778Z,47.2518
2023-05-06T11:11:02.470Z,46.2485
2023-05-06T11:12:05.113Z,48.8639
2023-05-06T11:13:07.849Z,50.6398
2023-05-06T11:14:10.502Z,51.6052
2023-05-06T11:15:13.157Z,50.5784
2023-05-06T11:16:15.877Z,50.0163
2023-05-06T11:17:18.897Z,50.1949
2023-05-06T11:18:21.562Z,50.5072
2023-05-06T11:19:24.216Z,50.5755
2023-05-06T11:20:26.919Z,50.7489
2023-05-06T11:21:29.566Z,52.3675
2023-05-06T11:22:32.678Z,51.3223
2023-05-06T11:23:35.352Z,51.4772
2023-05-06T11:24:38.013Z,53.0950
2023-05-06T11:25:40.605Z,51.3761
2023-05-06T11:26:43.927Z,52.8464
2023-05-06T11:27:46.982Z,53.4220
2023-05-06T11:28:46.887Z,52.8557
2023-05-06T11:29:49.592Z,51.0175
2023-05-06T11:30:52.274Z,52.8526
2023-05-06T11:31:54.866Z,52.1481
2023-05-06T11:32:57.622Z,51.4490
2023-05-06T11:34:00.261Z,50.1119
2023-05-06T11:35:02.986Z,49.9923
2023-05-06T11:36:13.148Z,49.8986
2023-05-06T11:37:15.832Z,52.5968
2023-05-06T11:38:18.499Z,50.6659
2023-05-06T11:39:21.129Z,49.1139
2023-05-06T11:40:23.814Z,49.0333
2023-05-06T11:41:26.544Z,49.0293
2023-05-06T11:42:29.405Z,49.3935
2023-05-06T11:43:32.047Z,48.3021
2023-05-06T11:44:34.703Z,47.3340
2023-05-06T11:45:37.576Z,45.9522
2023-05-06T11:46:40.288Z,46.8907
2023-05-06T11:47:43.538Z,48.0821
2023-05-06T11:48:46.207Z,48.4300
2023-05-06T11:49:48.915Z,47.8999
2023-05-06T11:50:51.553Z,48.0295
2023-05-06T11:51:54.221Z,49.1654
2023-05-06T11:52:56.872Z,48.6642
2023-05-06T11:53:59.679Z,49.3137
2023-05-06T11:55:02.592Z,48.1211
2023-05-06T11:56:05.242Z,46.8104
2023-05-06T11:57:08.464Z,47.6787
2023-05-06T11:58:11.117Z,48.4036
2023-05-06T11:59:13.770Z,48.2625
2023-05-06T12:00:16.442Z,49.0658
2023-05-06T12:01:19.083Z,48.7503
2023-05-06T12:02:21.887Z,48.7952
2023-05-06T12:03:24.745Z,51.5502
2023-05-06T12:04:27.586Z,51.7646
2023-05-06T12:05:30.588Z,52.4883
2023-05-06T12:06:33.275Z,52.2682
2023-05-06T12:07:36.074Z,51.5665
2023-05-06T12:08:38.930Z,49.0490
2023-05-06T12:09:41.582Z,46.5090
2023-05-06T12:10:44.238Z,44.3373
2023-05-06T12:11:46.881Z,42.7694
2023-05-06T12:12:49.606Z,43.5109
2023-05-06T12:13:52.207Z,46.3045
2023-05-06T12:14:54.893Z,45.7575
2023-05-06T12:15:57.599Z,45.6765
2023-05-06T12:17:00.253Z,43.7188
2023-05-06T12:18:03.166Z,46.6711
2023-05-06T12:19:05.800Z,44.2873
2023-05-06T12:20:08.564Z,43.3897
2023-05-06T12:21:11.246Z,45.1478
2023-05-06T12:22:13.935Z,43.5162
2023-05-06T12:23:16.641Z,42.3450
2023-05-06T12:24:19.383Z,42.3542
2023-05-06T12:25:22.035Z,44.0981
2023-05-06T12:26:24.818Z,42.7341
2023-05-06T12:27:27.424Z,40.8681
2023-05-06T12:28:30.104Z,40.9380
2023-05-06T12:29:32.725Z,40.7156
2023-05-06T12:30:35.846Z,40.1030
2023-05-06T12:31:38.493Z,41.5218
2023-05-06T12:32:41.183Z,43.5662
2023-05-06T12:33:43.865Z,43.3845
2023-05-06T12:34:46.498Z,43.8723
2023-05-06T12:35:49.186Z,44.2075
2023-05-06T12:36:51.848Z,42.9299
2023-05-06T12:37:54.499Z,41.8123
2023-05-06T12:38:57.143Z,45.2105
2023-05-06T12:39:59.831Z,44.4309
2023-05-06T12:41:02.477Z,44.8862
2023-05-06T12:42:05.114Z,47.2111
2023-05-06T12:43:07.866Z,49.1672
2023-05-06T12:44:10.520Z,48.0540
2023-05-06T12:45:13.220Z,47.1447
2023-05-06T12:46:15.926Z,46.9718
2023-05-06T12:47:18.555Z,47.5000
2023-05-06T12:48:21.230Z,46.5590
2023-05-06T12:49:23.887Z,46.7567
2023-05-06T12:50:26.603Z,45.6001
2023-05-06T12:51:29.236Z,43.9826
2023-05-06T12:52:31.894Z,45.5802
2023-05-06T12:53:34.589Z,46.4705
2023-05-06T12:54:37.327Z,48.6354
2023-05-06T12:55:39.935Z,49.4210
2023-05-06T12:56:42.714Z,47.3145